createdAt,value
2022-11-27T00:00:09.208Z,8.40
2022-11-27T00:02:42.965Z,8.30
2022-11-27T00:05:20.539Z,8.60
2022-11-27T00:07:57.139Z,8.30
2022-11-27T00:10:31.547Z,8.30
2022-11-27T00:13:08.708Z,8.30
2022-11-27T00:15:44.403Z,8.20
2022-11-27T00:18:14.439Z,8.40
2022-11-27T00:20:56.079Z,8.30
2022-11-27T00:23:35.150Z,8.40
2022-11-27T00:26:07.201Z,8.30
2022-11-27T00:28:41.593Z,8.20
2022-11-27T00:31:12.943Z,8.20
2022-11-27T00:33:50.183Z,8.20
2022-11-27T00:36:23.906Z,8.20
2022-11-27T00:38:55.856Z,8.20
2022-11-27T00:41:25.492Z,8.20
2022-11-27T00:44:00.850Z,8.20
2022-11-27T00:46:37.247Z,8.20
2022-11-27T00:49:11.002Z,8.00
2022-11-27T00:51:37.671Z,8.20
2022-11-27T00:54:15.430Z,8.20
2022-11-27T00:56:54.996Z,8.20
2022-11-27T00:59:21.916Z,8.20
2022-11-27T01:01:55.745Z,8.10
2022-11-27T01:04:26.322Z,8.10
2022-11-27T01:07:03.517Z,8.30
2022-11-27T01:09:43.338Z,8.10
2022-11-27T01:12:20.028Z,8.60
2022-11-27T01:14:47.176Z,8.00
2022-11-27T01:17:15.857Z,8.10
2022-11-27T01:19:42.557Z,8.10
2022-11-27T01:22:12.045Z,8.10
2022-11-27T01:24:39.841Z,8.10
2022-11-27T01:27:06.697Z,8.20
2022-11-27T01:29:33.356Z,8.30
2022-11-27T01:32:00.056Z,8.30
2022-11-27T01:34:26.766Z,8.30
2022-11-27T01:36:53.369Z,8.20
2022-11-27T01:39:23.362Z,8.30
2022-11-27T01:41:51.080Z,8.30
2022-11-27T01:44:48.485Z,8.30
2022-11-27T01:47:22.070Z,8.40
2022-11-27T01:49:52.525Z,8.30
2022-11-27T01:52:21.642Z,8.40
2022-11-27T01:54:52.227Z,8.40
2022-11-27T01:57:23.446Z,8.60
2022-11-27T01:59:51.917Z,8.30
2022-11-27T02:02:18.783Z,8.30
2022-11-27T02:04:45.511Z,8.30
2022-11-27T02:07:12.278Z,8.30
2022-11-27T02:09:39.427Z,8.20
2022-11-27T02:12:15.611Z,8.20
2022-11-27T02:14:49.849Z,8.20
2022-11-27T02:17:21.322Z,8.30
2022-11-27T02:20:03.443Z,8.30
2022-11-27T02:22:44.130Z,8.30
2022-11-27T02:25:25.290Z,8.30
2022-11-27T02:28:10.233Z,7.80
2022-11-27T02:30:45.860Z,8.10
2022-11-27T02:33:14.348Z,8.10
2022-11-27T02:35:47.942Z,8.00
2022-11-27T02:38:18.092Z,7.90
2022-11-27T02:40:54.115Z,7.90
2022-11-27T02:43:25.310Z,7.60
2022-11-27T02:45:53.252Z,7.90
2022-11-27T02:48:24.403Z,7.90
2022-11-27T02:50:53.474Z,7.90
2022-11-27T02:53:24.354Z,7.80
2022-11-27T02:55:52.988Z,7.80
2022-11-27T02:58:23.530Z,7.80
2022-11-27T03:00:50.765Z,7.90
2022-11-27T03:03:21.773Z,7.80
2022-11-27T03:05:51.842Z,7.80
2022-11-27T03:08:25.417Z,7.80
2022-11-27T03:10:58.089Z,7.80
2022-11-27T03:13:25.551Z,7.70
2022-11-27T03:16:03.698Z,7.70
2022-11-27T03:18:37.264Z,7.80
2022-11-27T03:21:09.253Z,7.70
2022-11-27T03:23:35.901Z,7.70
2022-11-27T03:26:02.578Z,7.70
2022-11-27T03:28:30.288Z,7.60
2022-11-27T03:30:57.398Z,7.60
2022-11-27T03:33:24.299Z,7.50
2022-11-27T03:35:52.322Z,7.50
2022-11-27T03:38:19.099Z,7.50
2022-11-27T03:40:54.229Z,7.50
2022-11-27T03:43:25.186Z,7.60
2022-11-27T03:45:58.115Z,7.50
2022-11-27T03:48:32.845Z,7.60
2022-11-27T03:51:07.429Z,7.60
2022-11-27T03:53:43.271Z,6.90
2022-11-27T03:56:14.685Z,7.50
2022-11-27T03:58:45.715Z,7.60
2022-11-27T04:01:15.908Z,7.60
2022-11-27T04:03:42.628Z,7.60
2022-11-27T04:06:11.010Z,7.60
2022-11-27T04:08:38.112Z,7.70
2022-11-27T04:11:05.021Z,7.50
2022-11-27T04:13:31.670Z,7.40
2022-11-27T04:16:00.689Z,7.40
2022-11-27T04:18:27.392Z,7.40
2022-11-27T04:20:54.190Z,7.30
2022-11-27T04:23:21.608Z,9.60
2022-11-27T04:25:48.980Z,7.30
2022-11-27T04:28:16.924Z,7.30
2022-11-27T04:30:43.915Z,7.50
2022-11-27T04:33:10.567Z,7.30
2022-11-27T04:35:37.223Z,7.30
2022-11-27T04:38:03.962Z,7.20
2022-11-27T04:40:32.004Z,7.20
2022-11-27T04:42:58.748Z,7.10
2022-11-27T04:45:25.553Z,7.10
2022-11-27T04:47:52.235Z,7.10
2022-11-27T04:50:18.997Z,7.10
2022-11-27T04:52:45.653Z,7.10
2022-11-27T04:55:12.252Z,6.90
2022-11-27T04:57:39.955Z,6.90
2022-11-27T05:00:07.766Z,6.90
2022-11-27T05:02:34.600Z,6.80
2022-11-27T05:05:01.228Z,6.70
2022-11-27T05:07:28.644Z,6.70
2022-11-27T05:09:55.260Z,6.60
2022-11-27T05:12:21.940Z,6.60
2022-11-27T05:14:49.338Z,6.60
2022-11-27T05:17:16.006Z,6.50
2022-11-27T05:19:42.726Z,6.50
2022-11-27T05:22:09.506Z,6.40
2022-11-27T05:24:36.248Z,6.40
2022-11-27T05:27:02.901Z,6.30
2022-11-27T05:29:29.710Z,6.30
2022-11-27T05:31:57.545Z,6.30
2022-11-27T05:34:24.199Z,6.20
2022-11-27T05:36:50.835Z,6.20
2022-11-27T05:39:17.486Z,6.10
2022-11-27T05:41:44.183Z,6.10
2022-11-27T05:44:12.358Z,6.10
2022-11-27T05:46:39.051Z,6.00
2022-11-27T05:49:06.387Z,6.00
2022-11-27T05:51:33.048Z,6.00
2022-11-27T05:53:59.773Z,6.30
2022-11-27T05:56:26.455Z,5.90
2022-11-27T05:58:53.212Z,5.80
2022-11-27T06:01:20.109Z,5.40
2022-11-27T06:03:46.950Z,5.70
2022-11-27T06:06:16.391Z,5.70
2022-11-27T06:08:43.701Z,5.50
2022-11-27T06:11:12.092Z,5.70
2022-11-27T06:13:39.965Z,5.80
2022-11-27T06:16:08.569Z,5.70
2022-11-27T06:18:35.266Z,5.70
2022-11-27T06:21:06.078Z,5.70
2022-11-27T06:23:33.739Z,5.50
2022-11-27T06:26:10.422Z,5.50
2022-11-27T06:28:37.149Z,5.50
2022-11-27T06:31:06.535Z,5.40
2022-11-27T06:33:33.387Z,5.30
2022-11-27T06:35:59.994Z,5.30
2022-11-27T06:38:26.669Z,5.30
2022-11-27T06:40:54.013Z,5.40
2022-11-27T06:43:20.703Z,5.30
2022-11-27T06:45:55.311Z,5.30
2022-11-27T06:48:22.051Z,5.50
2022-11-27T06:50:48.687Z,5.30
2022-11-27T06:53:15.386Z,5.30
2022-11-27T06:55:42.039Z,5.30
2022-11-27T06:58:09.475Z,5.20
2022-11-27T07:00:36.283Z,5.20
2022-11-27T07:03:03.007Z,5.20
2022-11-27T07:05:29.678Z,5.20
2022-11-27T07:07:57.838Z,5.20
2022-11-27T07:10:24.494Z,5.30
2022-11-27T07:12:51.127Z,5.30
2022-11-27T07:15:18.739Z,5.20
2022-11-27T07:17:45.829Z,5.30
2022-11-27T07:20:13.579Z,5.30
2022-11-27T07:22:40.754Z,5.30
2022-11-27T07:25:08.466Z,5.30
2022-11-27T07:27:35.450Z,5.30
2022-11-27T07:30:02.389Z,5.30
2022-11-27T07:32:33.266Z,5.20
2022-11-27T07:35:00.189Z,5.20
2022-11-27T07:37:29.911Z,5.20
2022-11-27T07:40:04.013Z,4.90
2022-11-27T07:42:38.038Z,5.20
2022-11-27T07:45:07.164Z,5.20
2022-11-27T07:47:34.540Z,5.20
2022-11-27T07:50:01.501Z,5.10
2022-11-27T07:52:28.276Z,5.20
2022-11-27T07:54:55.035Z,5.50
2022-11-27T07:57:21.696Z,5.20
2022-11-27T07:59:48.467Z,5.30
2022-11-27T08:02:15.948Z,5.40
2022-11-27T08:04:43.766Z,5.30
2022-11-27T08:07:11.320Z,5.30
2022-11-27T08:09:39.428Z,5.30
2022-11-27T08:12:07.342Z,5.20
2022-11-27T08:14:34.169Z,5.30
2022-11-27T08:17:00.845Z,5.30
2022-11-27T08:19:27.800Z,5.40
2022-11-27T08:21:56.923Z,5.60
2022-11-27T08:24:23.797Z,5.70
2022-11-27T08:26:52.977Z,5.80
2022-11-27T08:29:20.858Z,5.70
2022-11-27T08:31:48.137Z,5.80
2022-11-27T08:34:14.826Z,5.10
2022-11-27T08:36:41.955Z,5.80
2022-11-27T08:39:10.155Z,5.70
2022-11-27T08:41:37.241Z,5.90
2022-11-27T08:44:09.304Z,6.20
2022-11-27T08:46:36.456Z,6.40
2022-11-27T08:49:04.032Z,6.30
2022-11-27T08:51:31.205Z,6.70
2022-11-27T08:53:57.919Z,6.60
2022-11-27T08:56:25.869Z,6.60
2022-11-27T08:58:53.525Z,6.50
2022-11-27T09:01:23.007Z,6.50
2022-11-27T09:03:52.169Z,6.40
2022-11-27T09:06:21.489Z,6.70
2022-11-27T09:08:50.373Z,6.40
2022-11-27T09:11:19.222Z,6.40
2022-11-27T09:13:51.683Z,6.40
2022-11-27T09:16:24.100Z,6.20
2022-11-27T09:18:53.401Z,6.50
2022-11-27T09:21:27.615Z,6.40
2022-11-27T09:23:55.809Z,6.60
2022-11-27T09:26:24.995Z,6.80
2022-11-27T09:28:55.587Z,6.80
2022-11-27T09:31:23.855Z,6.70
2022-11-27T09:33:51.241Z,7.30
2022-11-27T09:36:20.393Z,6.80
2022-11-27T09:38:47.697Z,7.30
2022-11-27T09:41:42.750Z,7.00
2022-11-27T09:44:29.936Z,7.00
2022-11-27T09:47:00.481Z,7.00
2022-11-27T09:49:33.878Z,7.00
2022-11-27T09:52:06.158Z,6.90
2022-11-27T09:54:37.703Z,7.10
2022-11-27T09:57:07.132Z,7.20
2022-11-27T09:59:44.291Z,7.20
2022-11-27T10:02:17.998Z,7.30
2022-11-27T10:05:12.109Z,7.20
2022-11-27T10:07:44.609Z,7.20
2022-11-27T10:10:27.910Z,7.30
2022-11-27T10:13:05.785Z,7.50
2022-11-27T10:15:42.344Z,7.40
2022-11-27T10:18:14.663Z,7.50
2022-11-27T10:20:46.872Z,7.60
2022-11-27T10:23:20.081Z,7.70
2022-11-27T10:26:02.803Z,7.80
2022-11-27T10:28:37.962Z,7.90
2022-11-27T10:31:16.255Z,7.90
2022-11-27T10:33:52.970Z,7.80
2022-11-27T10:36:28.089Z,7.80
2022-11-27T10:38:56.570Z,8.00
2022-11-27T10:41:48.281Z,8.00
2022-11-27T10:44:26.854Z,8.40
2022-11-27T10:47:00.207Z,8.10
2022-11-27T10:49:26.982Z,8.10
2022-11-27T10:51:53.694Z,8.10
2022-11-27T10:54:25.798Z,8.10
2022-11-27T10:57:16.126Z,8.20
2022-11-27T10:59:47.626Z,8.10
2022-11-27T11:02:30.189Z,8.20
2022-11-27T11:05:24.124Z,8.10
2022-11-27T11:07:55.688Z,8.10
2022-11-27T11:10:26.642Z,8.10
2022-11-27T11:13:14.984Z,8.30
2022-11-27T11:15:53.891Z,8.30
2022-11-27T11:18:23.159Z,8.50
2022-11-27T11:20:52.305Z,8.50
2022-11-27T11:23:32.253Z,8.70
2022-11-27T11:26:07.814Z,8.90
2022-11-27T11:28:44.049Z,9.10
2022-11-27T11:31:16.597Z,8.80
2022-11-27T11:33:52.696Z,8.70
2022-11-27T11:36:19.672Z,8.70
2022-11-27T11:38:47.816Z,8.70
2022-11-27T11:41:17.409Z,8.60
2022-11-27T11:43:54.514Z,8.70
2022-11-27T11:46:23.983Z,8.70
2022-11-27T11:48:58.653Z,8.50
2022-11-27T11:51:40.574Z,8.60
2022-11-27T11:54:17.930Z,8.60
2022-11-27T11:56:51.742Z,8.60
2022-11-27T11:59:26.011Z,8.60
2022-11-27T12:02:14.318Z,8.50
2022-11-27T12:05:02.828Z,8.50
2022-11-27T12:07:40.281Z,8.60
2022-11-27T12:10:15.200Z,8.80
2022-11-27T12:12:54.748Z,8.70
2022-11-27T12:15:27.950Z,7.90
2022-11-27T12:18:00.393Z,8.90
2022-11-27T12:20:40.903Z,9.00
2022-11-27T12:23:29.784Z,9.10
2022-11-27T12:26:05.982Z,8.90
2022-11-27T12:28:59.290Z,8.90
2022-11-27T12:31:42.715Z,8.60
2022-11-27T12:34:15.861Z,8.50
2022-11-27T12:36:57.903Z,8.30
2022-11-27T12:39:30.934Z,8.30
2022-11-27T12:42:05.628Z,8.40
2022-11-27T12:44:49.439Z,8.60
2022-11-27T12:47:21.024Z,8.90
2022-11-27T12:49:50.293Z,9.70
2022-11-27T12:52:21.012Z,11.20
2022-11-27T12:54:53.055Z,12.10
2022-11-27T12:57:29.153Z,11.50
2022-11-27T12:59:59.130Z,12.70
2022-11-27T13:02:34.215Z,13.30
2022-11-27T13:05:04.300Z,13.10
2022-11-27T13:07:39.447Z,13.00
2022-11-27T13:10:14.812Z,14.40
2022-11-27T13:12:46.427Z,15.80
2022-11-27T13:15:22.481Z,17.30
2022-11-27T13:17:55.902Z,18.30
2022-11-27T13:20:35.181Z,19.10
2022-11-27T13:23:02.936Z,17.30
2022-11-27T13:25:31.869Z,15.40
2022-11-27T13:28:00.428Z,14.20
2022-11-27T13:30:32.738Z,13.30
2022-11-27T13:33:01.518Z,12.80
2022-11-27T13:35:31.446Z,12.30
2022-11-27T13:38:08.282Z,11.40
2022-11-27T13:40:41.612Z,10.10
2022-11-27T13:43:20.868Z,10.40
2022-11-27T13:45:48.203Z,9.70
2022-11-27T13:48:31.365Z,9.20
2022-11-27T13:50:59.082Z,9.00
2022-11-27T13:53:35.294Z,8.80
2022-11-27T13:56:06.067Z,10.80
2022-11-27T13:58:35.755Z,8.40
2022-11-27T14:01:15.020Z,8.20
2022-11-27T14:03:41.940Z,8.10
2022-11-27T14:06:18.018Z,8.00
2022-11-27T14:08:53.940Z,8.10
2022-11-27T14:11:32.110Z,8.00
2022-11-27T14:14:00.286Z,8.00
2022-11-27T14:16:31.438Z,7.90
2022-11-27T14:19:00.280Z,7.90
2022-11-27T14:21:39.698Z,8.10
2022-11-27T14:24:40.658Z,7.70
2022-11-27T14:27:16.381Z,7.70
2022-11-27T14:29:45.654Z,7.60
2022-11-27T14:32:14.635Z,7.60
2022-11-27T14:34:41.760Z,7.50
2022-11-27T14:37:20.910Z,7.40
2022-11-27T14:39:51.126Z,7.40
2022-11-27T14:42:25.175Z,7.40
2022-11-27T14:45:02.259Z,7.30
2022-11-27T14:47:29.279Z,7.30
2022-11-27T14:49:56.537Z,7.20
2022-11-27T14:52:24.085Z,7.20
2022-11-27T14:54:54.605Z,7.20
2022-11-27T14:57:24.802Z,7.10
2022-11-27T15:00:13.771Z,7.10
2022-11-27T15:02:40.769Z,7.00
2022-11-27T15:05:16.694Z,7.00
2022-11-27T15:07:50.363Z,6.90
2022-11-27T15:10:27.388Z,6.90
2022-11-27T15:12:54.836Z,6.90
2022-11-27T15:15:26.438Z,6.50
2022-11-27T15:18:02.390Z,6.80
2022-11-27T15:20:35.791Z,6.30
2022-11-27T15:23:03.481Z,6.40
2022-11-27T15:25:37.453Z,6.70
2022-11-27T15:28:27.477Z,6.20
2022-11-27T15:30:54.645Z,6.70
2022-11-27T15:33:27.387Z,4.80
2022-11-27T15:35:55.336Z,6.70
2022-11-27T15:38:22.107Z,5.00
2022-11-27T15:41:00.191Z,6.70
2022-11-27T15:43:32.609Z,6.60
2022-11-27T15:45:59.600Z,6.90
2022-11-27T15:48:26.321Z,7.50
2022-11-27T15:50:53.035Z,6.60
2022-11-27T15:53:22.583Z,6.70
2022-11-27T15:55:49.367Z,6.60
2022-11-27T15:58:16.665Z,6.60
2022-11-27T16:00:43.517Z,6.60
2022-11-27T16:03:10.411Z,6.60
2022-11-27T16:05:37.195Z,6.50
2022-11-27T16:08:05.841Z,6.60
2022-11-27T16:10:33.147Z,6.50
2022-11-27T16:13:00.134Z,6.50
2022-11-27T16:15:32.574Z,6.50
2022-11-27T16:18:03.929Z,6.50
2022-11-27T16:20:30.564Z,6.50
2022-11-27T16:22:57.381Z,6.40
2022-11-27T16:25:24.743Z,6.40
2022-11-27T16:27:51.603Z,6.30
2022-11-27T16:30:19.569Z,6.30
2022-11-27T16:32:47.134Z,6.30
2022-11-27T16:35:13.961Z,6.30
2022-11-27T16:37:41.581Z,6.30
2022-11-27T16:40:09.214Z,6.30
2022-11-27T16:42:37.790Z,6.30
2022-11-27T16:45:10.615Z,6.30
2022-11-27T16:47:39.753Z,6.30
2022-11-27T16:50:10.423Z,6.30
2022-11-27T16:52:39.499Z,6.30
2022-11-27T16:55:09.868Z,6.30
2022-11-27T16:57:38.479Z,6.20
2022-11-27T17:00:08.755Z,6.40
2022-11-27T17:02:35.606Z,6.20
2022-11-27T17:05:04.831Z,5.90
2022-11-27T17:07:34.627Z,6.20
2022-11-27T17:10:05.249Z,6.10
2022-11-27T17:12:36.262Z,6.10
2022-11-27T17:15:07.084Z,6.10
2022-11-27T17:17:40.243Z,6.10
2022-11-27T17:20:10.975Z,6.10
2022-11-27T17:22:39.818Z,6.10
2022-11-27T17:25:11.547Z,6.10
2022-11-27T17:27:39.941Z,6.10
2022-11-27T17:30:09.059Z,6.20
2022-11-27T17:32:39.194Z,6.10
2022-11-27T17:35:10.266Z,6.00
2022-11-27T17:37:41.306Z,6.00
2022-11-27T17:40:11.837Z,6.00
2022-11-27T17:42:39.349Z,5.70
2022-11-27T17:45:10.151Z,6.10
2022-11-27T17:47:39.434Z,5.90
2022-11-27T17:50:09.297Z,5.90
2022-11-27T17:52:35.998Z,5.90
2022-11-27T17:55:05.716Z,5.90
2022-11-27T17:57:34.518Z,5.90
2022-11-27T18:00:03.590Z,5.90
2022-11-27T18:02:32.871Z,6.20
2022-11-27T18:05:01.181Z,5.90
2022-11-27T18:07:31.615Z,5.20
2022-11-27T18:10:05.565Z,5.90
2022-11-27T18:12:34.924Z,5.90
2022-11-27T18:15:05.112Z,5.80
2022-11-27T18:17:33.955Z,5.90
2022-11-27T18:22:59.966Z,6.20
2022-11-27T18:25:29.962Z,5.90
2022-11-27T18:28:00.166Z,5.80
2022-11-27T18:30:27.378Z,5.90
2022-11-27T18:32:56.603Z,5.70
2022-11-27T18:35:23.315Z,5.70
2022-11-27T18:37:53.399Z,5.10
2022-11-27T18:40:23.717Z,5.70
2022-11-27T18:42:54.550Z,5.30
2022-11-27T18:45:33.191Z,5.70
2022-11-27T18:48:02.829Z,5.70
2022-11-27T18:50:30.118Z,5.80
2022-11-27T18:52:59.317Z,5.70
2022-11-27T18:55:27.076Z,5.70
2022-11-27T18:57:56.168Z,5.70
2022-11-27T19:00:26.420Z,5.70
2022-11-27T19:02:56.783Z,5.70
2022-11-27T19:05:28.097Z,5.70
2022-11-27T19:07:59.155Z,5.60
2022-11-27T19:10:29.604Z,5.60
2022-11-27T19:12:59.256Z,5.50
2022-11-27T19:15:28.694Z,5.50
2022-11-27T19:17:57.862Z,5.50
2022-11-27T19:20:25.560Z,5.50
2022-11-27T19:22:52.207Z,5.50
2022-11-27T19:25:19.043Z,5.50
2022-11-27T19:27:46.275Z,5.40
2022-11-27T19:30:17.408Z,5.40
2022-11-27T19:32:51.041Z,5.30
2022-11-27T19:35:25.374Z,5.30
2022-11-27T19:37:55.510Z,5.60
2022-11-27T19:40:26.013Z,5.30
2022-11-27T19:43:00.672Z,5.00
2022-11-27T19:45:35.901Z,5.30
2022-11-27T19:48:05.168Z,5.30
2022-11-27T19:50:39.028Z,5.30
2022-11-27T19:53:24.061Z,5.60
2022-11-27T19:56:12.337Z,5.40
2022-11-27T19:58:56.441Z,5.40
2022-11-27T20:01:27.106Z,5.50
2022-11-27T20:03:57.053Z,5.50
2022-11-27T20:06:35.495Z,5.50
2022-11-27T20:09:14.447Z,5.60
2022-11-27T20:11:47.840Z,5.50
2022-11-27T20:14:29.852Z,5.50
2022-11-27T20:17:17.324Z,5.30
2022-11-27T20:19:59.266Z,5.40
2022-11-27T20:22:29.502Z,5.50
2022-11-27T20:25:19.560Z,5.50
2022-11-27T20:28:14.372Z,5.40
2022-11-27T20:30:58.724Z,5.40
2022-11-27T20:33:44.835Z,5.30
2022-11-27T20:36:15.896Z,5.40
2022-11-27T20:38:48.190Z,5.40
2022-11-27T20:41:20.366Z,5.30
2022-11-27T20:43:53.274Z,5.60
2022-11-27T20:46:24.072Z,5.30
2022-11-27T20:48:58.482Z,5.30
2022-11-27T20:51:31.153Z,5.30
2022-11-27T20:54:09.312Z,5.30
2022-11-27T20:56:59.968Z,5.50
2022-11-27T20:59:26.892Z,3.70
2022-11-27T21:01:55.184Z,5.30
2022-11-27T21:04:26.595Z,5.30
2022-11-27T21:06:57.401Z,5.30
2022-11-27T21:09:24.381Z,5.20
2022-11-27T21:11:52.558Z,5.30
2022-11-27T21:14:21.325Z,5.30
2022-11-27T21:16:52.310Z,5.30
2022-11-27T21:19:27.143Z,4.70
2022-11-27T21:21:55.591Z,5.40
2022-11-27T21:24:27.822Z,5.60
2022-11-27T21:26:57.806Z,5.30
2022-11-27T21:29:28.688Z,5.40
2022-11-27T21:31:57.205Z,5.40
2022-11-27T21:34:27.097Z,5.40
2022-11-27T21:36:57.965Z,5.30
2022-11-27T21:39:24.999Z,5.30
2022-11-27T21:41:53.493Z,5.30
2022-11-27T21:44:21.977Z,4.90
2022-11-27T21:46:50.417Z,5.30
2022-11-27T21:49:19.145Z,5.30
2022-11-27T21:51:46.103Z,5.30
2022-11-27T21:54:14.548Z,5.20
2022-11-27T21:56:41.463Z,5.20
2022-11-27T21:59:12.089Z,5.20
2022-11-27T22:01:38.804Z,5.20
2022-11-27T22:04:06.217Z,5.20
2022-11-27T22:06:36.969Z,5.20
2022-11-27T22:09:07.419Z,5.30
2022-11-27T22:11:37.915Z,5.20
2022-11-27T22:14:06.502Z,5.20
2022-11-27T22:16:38.709Z,5.20
2022-11-27T22:19:31.253Z,5.20
2022-11-27T22:22:02.554Z,5.20
2022-11-27T22:24:33.669Z,5.10
2022-11-27T22:27:02.365Z,5.10
2022-11-27T22:29:29.110Z,5.10
2022-11-27T22:32:22.389Z,4.60
2022-11-27T22:34:52.003Z,5.10
2022-11-27T22:37:19.016Z,5.10
2022-11-27T22:39:45.771Z,5.10
2022-11-27T22:42:13.098Z,5.10
2022-11-27T22:44:39.952Z,5.10
2022-11-27T22:47:06.875Z,5.10
2022-11-27T22:49:33.830Z,5.10
2022-11-27T22:52:00.715Z,5.10
2022-11-27T22:54:27.442Z,5.10
2022-11-27T22:56:54.737Z,5.20
2022-11-27T22:59:37.598Z,5.10
2022-11-27T23:02:05.459Z,5.20
2022-11-27T23:04:32.274Z,5.10
2022-11-27T23:06:59.224Z,4.60
2022-11-27T23:09:26.489Z,5.00
2022-11-27T23:11:53.422Z,5.00
2022-11-27T23:14:20.873Z,5.00
2022-11-27T23:16:47.679Z,4.50
2022-11-27T23:19:14.563Z,5.00
2022-11-27T23:21:41.749Z,5.00
2022-11-27T23:24:11.530Z,5.00
2022-11-27T23:26:38.240Z,5.00
2022-11-27T23:29:05.278Z,5.00
2022-11-27T23:31:34.766Z,5.10
2022-11-27T23:34:03.166Z,5.10
2022-11-27T23:36:31.366Z,5.10
2022-11-27T23:38:59.455Z,5.00
2022-11-27T23:41:26.424Z,5.00
2022-11-27T23:43:53.951Z,5.00
2022-11-27T23:46:24.576Z,5.00
2022-11-27T23:48:54.067Z,5.00
2022-11-27T23:51:22.874Z,5.00
2022-11-27T23:53:50.016Z,5.00
2022-11-27T23:56:19.006Z,4.90
2022-11-27T23:58:47.623Z,4.90
